Hlavní strana
METAR-TAF:

METAR-TAF

Letiště :

Ronneby, Švédsko

zeměpisná šířka: 56-16N, zeměpisná délka: 015-17E, výška: 58 m

Aktuální stav počasí

Zpráva byla vytvořena před 26 minutami, v 11:20 UTC
Severoseverozápadní vítr 13 kt, proměnlivý mezi západoseverozápadním a severním
Teplota 4°C
Vlhkost vzduchu 52%
Tlak 1011 hPa
Viditelnost 10 km a více
Polojasno ve výšce 4800 ft

METAR: ESDF 071120Z 33013KT 300V360 9999 SCT048 04/M05 Q1011

Čas: 12:46 (11:46 UTC)

Předpověď počasí

Zpráva byla vytvořena před 16 minutami, v 11:30 UTC
Předpověď platná od 07 v 12 UTC do 07 v 20 UTC
Severoseverozápadní vítr 8 kt
Viditelnost 10 km a více
Žádná oblačnost pod 1500 m, nevyskytují se cumulonimby.

TAF: ESDF 071130Z 0712/0720 34008KT CAVOK

Stav a předpovědi počasí z více než 4 000 letišť (zprávy METAR a TAF).

Červené a žluté tečky na mapě představují dostupné meteorologické stanice.

Když kurzor umístíte na tečku, zobrazí se název stanice.

Pak kliknutím zobrazíte stav a předpověď počasí.

Chcete-li změnit mapu, kliknutím na zelené tlačítko se znaménkem +mapu přiblížíte, kliknutím na zelené tlačítko se znaménkem – mapu oddálíte a kliknutím na zelené šipky přejdete na sousední mapy.


METAR-TAF: